sensor_id;sensor_type;location;lat;lon;timestamp;P1;durP1;ratioP1;P2;durP2;ratioP2
71767;SDS011;59604;52.138;5.446;2022-07-04T00:01:30;5.65;;;1.90;;
71767;SDS011;59604;52.138;5.446;2022-07-04T00:03:57;5.50;;;1.70;;
71767;SDS011;59604;52.138;5.446;2022-07-04T00:06:24;6.30;;;1.92;;
71767;SDS011;59604;52.138;5.446;2022-07-04T00:08:50;5.55;;;2.03;;
71767;SDS011;59604;52.138;5.446;2022-07-04T00:11:17;6.35;;;1.70;;
71767;SDS011;59604;52.138;5.446;2022-07-04T00:13:43;6.10;;;2.00;;
71767;SDS011;59604;52.138;5.446;2022-07-04T00:16:10;5.07;;;1.90;;
71767;SDS011;59604;52.138;5.446;2022-07-04T00:18:36;5.68;;;2.00;;
71767;SDS011;59604;52.138;5.446;2022-07-04T00:21:05;5.13;;;1.80;;
71767;SDS011;59604;52.138;5.446;2022-07-04T00:23:31;6.35;;;1.85;;
71767;SDS011;59604;52.138;5.446;2022-07-04T00:25:58;5.78;;;1.83;;
71767;SDS011;59604;52.138;5.446;2022-07-04T00:28:24;5.38;;;2.10;;
71767;SDS011;59604;52.138;5.446;2022-07-04T00:30:51;6.13;;;1.90;;
71767;SDS011;59604;52.138;5.446;2022-07-04T00:33:17;4.78;;;1.95;;
71767;SDS011;59604;52.138;5.446;2022-07-04T00:35:44;5.35;;;1.85;;
71767;SDS011;59604;52.138;5.446;2022-07-04T00:38:10;4.47;;;1.95;;
71767;SDS011;59604;52.138;5.446;2022-07-04T00:40:37;4.70;;;2.00;;
71767;SDS011;59604;52.138;5.446;2022-07-04T00:43:04;7.35;;;2.00;;
71767;SDS011;59604;52.138;5.446;2022-07-04T00:45:31;5.18;;;1.70;;
71767;SDS011;59604;52.138;5.446;2022-07-04T00:47:58;6.32;;;2.10;;
71767;SDS011;59604;52.138;5.446;2022-07-04T00:50:24;6.13;;;2.10;;
71767;SDS011;59604;52.138;5.446;2022-07-04T00:52:52;6.13;;;2.05;;
71767;SDS011;59604;52.138;5.446;2022-07-04T00:55:19;6.72;;;2.05;;
71767;SDS011;59604;52.138;5.446;2022-07-04T00:57:48;4.85;;;2.10;;
71767;SDS011;59604;52.138;5.446;2022-07-04T01:00:14;5.30;;;1.88;;
71767;SDS011;59604;52.138;5.446;2022-07-04T01:02:42;4.53;;;2.05;;
71767;SDS011;59604;52.138;5.446;2022-07-04T01:05:08;5.13;;;2.15;;
71767;SDS011;59604;52.138;5.446;2022-07-04T01:07:35;5.95;;;2.00;;
71767;SDS011;59604;52.138;5.446;2022-07-04T01:10:02;6.35;;;2.10;;
71767;SDS011;59604;52.138;5.446;2022-07-04T01:12:29;6.50;;;2.20;;
71767;SDS011;59604;52.138;5.446;2022-07-04T01:14:56;4.97;;;1.98;;
71767;SDS011;59604;52.138;5.446;2022-07-04T01:17:23;5.75;;;2.30;;
71767;SDS011;59604;52.138;5.446;2022-07-04T01:19:49;5.75;;;2.22;;
71767;SDS011;59604;52.138;5.446;2022-07-04T01:22:16;6.25;;;2.10;;
71767;SDS011;59604;52.138;5.446;2022-07-04T01:24:43;7.40;;;2.40;;
71767;SDS011;59604;52.138;5.446;2022-07-04T01:27:10;5.85;;;2.35;;
71767;SDS011;59604;52.138;5.446;2022-07-04T01:29:36;7.90;;;2.47;;
71767;SDS011;59604;52.138;5.446;2022-07-04T01:32:06;6.38;;;2.45;;
71767;SDS011;59604;52.138;5.446;2022-07-04T01:34:34;6.60;;;2.60;;
71767;SDS011;59604;52.138;5.446;2022-07-04T01:37:08;7.60;;;3.00;;
71767;SDS011;59604;52.138;5.446;2022-07-04T01:39:34;9.23;;;3.10;;
71767;SDS011;59604;52.138;5.446;2022-07-04T01:42:01;10.05;;;3.40;;
71767;SDS011;59604;52.138;5.446;2022-07-04T01:44:27;7.05;;;3.33;;
71767;SDS011;59604;52.138;5.446;2022-07-04T01:46:54;8.07;;;3.50;;
71767;SDS011;59604;52.138;5.446;2022-07-04T01:49:20;8.48;;;3.60;;
71767;SDS011;59604;52.138;5.446;2022-07-04T01:51:48;6.38;;;3.33;;
71767;SDS011;59604;52.138;5.446;2022-07-04T01:54:16;9.23;;;3.35;;
71767;SDS011;59604;52.138;5.446;2022-07-04T01:56:42;6.93;;;3.28;;
71767;SDS011;59604;52.138;5.446;2022-07-04T01:59:08;6.78;;;3.50;;
71767;SDS011;59604;52.138;5.446;2022-07-04T02:01:35;7.68;;;3.17;;
71767;SDS011;59604;52.138;5.446;2022-07-04T02:06:31;6.35;;;3.50;;
71767;SDS011;59604;52.138;5.446;2022-07-04T02:08:58;6.85;;;3.35;;
71767;SDS011;59604;52.138;5.446;2022-07-04T02:11:43;6.75;;;3.33;;
71767;SDS011;59604;52.138;5.446;2022-07-04T02:14:30;7.40;;;3.13;;
71767;SDS011;59604;52.138;5.446;2022-07-04T02:16:57;7.55;;;3.40;;
71767;SDS011;59604;52.138;5.446;2022-07-04T02:19:24;7.88;;;3.58;;
71767;SDS011;59604;52.138;5.446;2022-07-04T02:21:51;7.43;;;3.35;;
71767;SDS011;59604;52.138;5.446;2022-07-04T02:24:18;8.00;;;3.45;;
71767;SDS011;59604;52.138;5.446;2022-07-04T02:26:45;7.70;;;3.53;;
71767;SDS011;59604;52.138;5.446;2022-07-04T02:29:13;9.00;;;3.65;;
71767;SDS011;59604;52.138;5.446;2022-07-04T02:31:39;8.05;;;3.33;;
71767;SDS011;59604;52.138;5.446;2022-07-04T02:34:06;8.35;;;3.55;;
71767;SDS011;59604;52.138;5.446;2022-07-04T02:36:32;10.68;;;3.70;;
71767;SDS011;59604;52.138;5.446;2022-07-04T02:38:59;7.45;;;3.45;;
71767;SDS011;59604;52.138;5.446;2022-07-04T02:41:25;7.25;;;3.58;;
71767;SDS011;59604;52.138;5.446;2022-07-04T02:43:52;9.73;;;3.67;;
71767;SDS011;59604;52.138;5.446;2022-07-04T02:46:18;7.65;;;3.50;;
71767;SDS011;59604;52.138;5.446;2022-07-04T02:48:45;8.43;;;3.85;;
71767;SDS011;59604;52.138;5.446;2022-07-04T02:51:11;8.82;;;3.83;;
71767;SDS011;59604;52.138;5.446;2022-07-04T02:53:38;8.63;;;3.47;;
71767;SDS011;59604;52.138;5.446;2022-07-04T02:56:04;7.68;;;3.60;;
71767;SDS011;59604;52.138;5.446;2022-07-04T02:58:31;7.88;;;3.70;;
71767;SDS011;59604;52.138;5.446;2022-07-04T03:00:58;10.25;;;3.72;;
71767;SDS011;59604;52.138;5.446;2022-07-04T03:03:26;8.70;;;3.83;;
71767;SDS011;59604;52.138;5.446;2022-07-04T03:05:52;8.10;;;3.65;;
71767;SDS011;59604;52.138;5.446;2022-07-04T03:08:19;11.15;;;3.70;;
71767;SDS011;59604;52.138;5.446;2022-07-04T03:10:46;8.63;;;3.95;;
71767;SDS011;59604;52.138;5.446;2022-07-04T03:13:16;6.55;;;3.47;;
71767;SDS011;59604;52.138;5.446;2022-07-04T03:15:42;9.20;;;3.83;;
71767;SDS011;59604;52.138;5.446;2022-07-04T03:18:09;9.38;;;3.80;;
71767;SDS011;59604;52.138;5.446;2022-07-04T03:20:35;8.82;;;3.95;;
71767;SDS011;59604;52.138;5.446;2022-07-04T03:23:02;7.32;;;3.95;;
71767;SDS011;59604;52.138;5.446;2022-07-04T03:25:28;7.93;;;3.95;;
71767;SDS011;59604;52.138;5.446;2022-07-04T03:27:55;8.57;;;4.05;;
71767;SDS011;59604;52.138;5.446;2022-07-04T03:30:21;10.27;;;4.35;;
71767;SDS011;59604;52.138;5.446;2022-07-04T03:32:48;7.93;;;3.83;;
71767;SDS011;59604;52.138;5.446;2022-07-04T03:35:15;10.38;;;4.28;;
71767;SDS011;59604;52.138;5.446;2022-07-04T03:37:41;9.68;;;3.92;;
71767;SDS011;59604;52.138;5.446;2022-07-04T03:40:08;7.88;;;4.13;;
71767;SDS011;59604;52.138;5.446;2022-07-04T03:42:35;8.38;;;4.00;;
71767;SDS011;59604;52.138;5.446;2022-07-04T03:45:02;8.90;;;4.32;;
71767;SDS011;59604;52.138;5.446;2022-07-04T03:47:29;8.57;;;3.97;;
71767;SDS011;59604;52.138;5.446;2022-07-04T03:49:55;10.20;;;4.00;;
71767;SDS011;59604;52.138;5.446;2022-07-04T03:52:22;9.75;;;4.63;;
71767;SDS011;59604;52.138;5.446;2022-07-04T03:54:48;8.73;;;4.18;;
71767;SDS011;59604;52.138;5.446;2022-07-04T03:57:15;9.95;;;4.32;;
71767;SDS011;59604;52.138;5.446;2022-07-04T03:59:42;8.40;;;4.35;;
71767;SDS011;59604;52.138;5.446;2022-07-04T04:02:08;11.98;;;4.43;;
71767;SDS011;59604;52.138;5.446;2022-07-04T04:04:35;10.27;;;4.90;;
71767;SDS011;59604;52.138;5.446;2022-07-04T04:07:20;10.00;;;4.75;;
71767;SDS011;59604;52.138;5.446;2022-07-04T04:09:46;12.52;;;5.13;;
71767;SDS011;59604;52.138;5.446;2022-07-04T04:12:13;12.32;;;5.10;;
71767;SDS011;59604;52.138;5.446;2022-07-04T04:14:39;12.98;;;5.55;;
71767;SDS011;59604;52.138;5.446;2022-07-04T04:17:06;12.30;;;5.05;;
71767;SDS011;59604;52.138;5.446;2022-07-04T04:19:33;10.15;;;5.10;;
71767;SDS011;59604;52.138;5.446;2022-07-04T04:21:59;11.30;;;5.47;;
71767;SDS011;59604;52.138;5.446;2022-07-04T04:24:26;11.35;;;5.35;;
71767;SDS011;59604;52.138;5.446;2022-07-04T04:26:52;11.80;;;5.10;;
71767;SDS011;59604;52.138;5.446;2022-07-04T04:29:19;9.73;;;5.22;;
71767;SDS011;59604;52.138;5.446;2022-07-04T04:31:45;11.10;;;5.30;;
71767;SDS011;59604;52.138;5.446;2022-07-04T04:34:11;13.07;;;5.40;;
71767;SDS011;59604;52.138;5.446;2022-07-04T04:36:38;12.68;;;5.65;;
71767;SDS011;59604;52.138;5.446;2022-07-04T04:39:04;12.60;;;5.50;;
71767;SDS011;59604;52.138;5.446;2022-07-04T04:41:31;11.30;;;5.80;;
71767;SDS011;59604;52.138;5.446;2022-07-04T04:43:57;10.98;;;5.55;;
71767;SDS011;59604;52.138;5.446;2022-07-04T04:46:24;12.48;;;5.55;;
71767;SDS011;59604;52.138;5.446;2022-07-04T04:48:51;11.13;;;5.57;;
71767;SDS011;59604;52.138;5.446;2022-07-04T04:51:17;11.23;;;5.50;;
71767;SDS011;59604;52.138;5.446;2022-07-04T04:53:46;12.63;;;5.60;;
71767;SDS011;59604;52.138;5.446;2022-07-04T04:56:13;11.45;;;5.75;;
71767;SDS011;59604;52.138;5.446;2022-07-04T04:58:39;13.27;;;5.93;;
71767;SDS011;59604;52.138;5.446;2022-07-04T05:01:06;11.63;;;6.22;;
71767;SDS011;59604;52.138;5.446;2022-07-04T05:03:52;13.95;;;6.28;;
71767;SDS011;59604;52.138;5.446;2022-07-04T05:06:19;12.65;;;5.82;;
71767;SDS011;59604;52.138;5.446;2022-07-04T05:08:46;11.07;;;5.63;;
71767;SDS011;59604;52.138;5.446;2022-07-04T05:11:13;11.18;;;5.07;;
71767;SDS011;59604;52.138;5.446;2022-07-04T05:13:40;13.05;;;5.65;;
71767;SDS011;59604;52.138;5.446;2022-07-04T05:16:06;11.82;;;5.35;;
71767;SDS011;59604;52.138;5.446;2022-07-04T05:18:33;10.90;;;5.50;;
71767;SDS011;59604;52.138;5.446;2022-07-04T05:20:59;10.68;;;5.15;;
71767;SDS011;59604;52.138;5.446;2022-07-04T05:23:26;10.88;;;5.53;;
71767;SDS011;59604;52.138;5.446;2022-07-04T05:25:52;11.13;;;5.45;;
71767;SDS011;59604;52.138;5.446;2022-07-04T05:28:19;11.25;;;6.05;;
71767;SDS011;59604;52.138;5.446;2022-07-04T05:30:45;12.18;;;5.40;;
71767;SDS011;59604;52.138;5.446;2022-07-04T05:33:12;10.82;;;5.25;;
71767;SDS011;59604;52.138;5.446;2022-07-04T05:35:38;11.35;;;5.10;;
71767;SDS011;59604;52.138;5.446;2022-07-04T05:38:04;11.38;;;4.90;;
71767;SDS011;59604;52.138;5.446;2022-07-04T05:40:31;11.35;;;4.28;;
71767;SDS011;59604;52.138;5.446;2022-07-04T05:42:57;11.85;;;5.18;;
71767;SDS011;59604;52.138;5.446;2022-07-04T05:45:24;10.50;;;4.32;;
71767;SDS011;59604;52.138;5.446;2022-07-04T05:47:50;10.75;;;4.32;;
71767;SDS011;59604;52.138;5.446;2022-07-04T05:50:17;10.55;;;4.60;;
71767;SDS011;59604;52.138;5.446;2022-07-04T05:52:43;9.52;;;4.10;;
71767;SDS011;59604;52.138;5.446;2022-07-04T05:55:11;10.25;;;4.07;;
71767;SDS011;59604;52.138;5.446;2022-07-04T05:57:37;9.95;;;3.88;;
71767;SDS011;59604;52.138;5.446;2022-07-04T06:00:10;14.27;;;3.80;;
71767;SDS011;59604;52.138;5.446;2022-07-04T06:02:37;8.30;;;3.92;;
71767;SDS011;59604;52.138;5.446;2022-07-04T06:05:04;9.77;;;3.45;;
71767;SDS011;59604;52.138;5.446;2022-07-04T06:07:31;10.02;;;3.42;;
71767;SDS011;59604;52.138;5.446;2022-07-04T06:09:57;8.55;;;3.25;;
71767;SDS011;59604;52.138;5.446;2022-07-04T06:12:24;9.10;;;3.00;;
71767;SDS011;59604;52.138;5.446;2022-07-04T06:14:50;10.98;;;3.10;;
71767;SDS011;59604;52.138;5.446;2022-07-04T06:17:17;11.73;;;3.83;;
71767;SDS011;59604;52.138;5.446;2022-07-04T06:19:43;10.23;;;2.90;;
71767;SDS011;59604;52.138;5.446;2022-07-04T06:22:10;9.30;;;3.30;;
71767;SDS011;59604;52.138;5.446;2022-07-04T06:24:36;7.70;;;3.10;;
71767;SDS011;59604;52.138;5.446;2022-07-04T06:27:03;8.30;;;2.97;;
71767;SDS011;59604;52.138;5.446;2022-07-04T06:29:29;9.38;;;3.20;;
71767;SDS011;59604;52.138;5.446;2022-07-04T06:31:56;9.88;;;3.05;;
71767;SDS011;59604;52.138;5.446;2022-07-04T06:34:22;7.82;;;3.13;;
71767;SDS011;59604;52.138;5.446;2022-07-04T06:37:08;8.07;;;3.25;;
71767;SDS011;59604;52.138;5.446;2022-07-04T06:39:35;9.40;;;3.40;;
71767;SDS011;59604;52.138;5.446;2022-07-04T06:42:01;8.68;;;3.35;;
71767;SDS011;59604;52.138;5.446;2022-07-04T06:44:28;8.20;;;2.97;;
71767;SDS011;59604;52.138;5.446;2022-07-04T06:46:54;8.18;;;3.30;;
71767;SDS011;59604;52.138;5.446;2022-07-04T06:49:20;13.02;;;4.78;;
71767;SDS011;59604;52.138;5.446;2022-07-04T06:51:47;10.32;;;3.75;;
71767;SDS011;59604;52.138;5.446;2022-07-04T06:54:13;7.57;;;3.80;;
71767;SDS011;59604;52.138;5.446;2022-07-04T06:56:40;11.27;;;3.65;;
71767;SDS011;59604;52.138;5.446;2022-07-04T06:59:06;9.55;;;3.58;;
71767;SDS011;59604;52.138;5.446;2022-07-04T07:01:33;10.40;;;3.58;;
71767;SDS011;59604;52.138;5.446;2022-07-04T07:03:59;9.32;;;3.85;;
71767;SDS011;59604;52.138;5.446;2022-07-04T07:06:26;10.93;;;4.05;;
71767;SDS011;59604;52.138;5.446;2022-07-04T07:08:52;9.65;;;3.70;;
71767;SDS011;59604;52.138;5.446;2022-07-04T07:11:19;11.25;;;3.88;;
71767;SDS011;59604;52.138;5.446;2022-07-04T07:13:47;13.10;;;3.45;;
71767;SDS011;59604;52.138;5.446;2022-07-04T07:16:16;10.20;;;3.65;;
71767;SDS011;59604;52.138;5.446;2022-07-04T07:18:43;9.05;;;3.72;;
71767;SDS011;59604;52.138;5.446;2022-07-04T07:21:10;7.75;;;3.13;;
71767;SDS011;59604;52.138;5.446;2022-07-04T07:23:37;9.27;;;3.20;;
71767;SDS011;59604;52.138;5.446;2022-07-04T07:26:07;9.95;;;3.70;;
71767;SDS011;59604;52.138;5.446;2022-07-04T07:28:34;8.10;;;3.10;;
71767;SDS011;59604;52.138;5.446;2022-07-04T07:31:01;8.30;;;2.88;;
71767;SDS011;59604;52.138;5.446;2022-07-04T07:33:28;8.52;;;2.13;;
71767;SDS011;59604;52.138;5.446;2022-07-04T07:35:54;11.00;;;2.70;;
71767;SDS011;59604;52.138;5.446;2022-07-04T07:38:21;8.23;;;3.00;;
71767;SDS011;59604;52.138;5.446;2022-07-04T07:40:47;10.73;;;2.92;;
71767;SDS011;59604;52.138;5.446;2022-07-04T07:43:13;8.35;;;2.80;;
71767;SDS011;59604;52.138;5.446;2022-07-04T07:45:40;6.50;;;2.90;;
71767;SDS011;59604;52.138;5.446;2022-07-04T07:48:06;7.43;;;2.67;;
71767;SDS011;59604;52.138;5.446;2022-07-04T07:50:33;6.07;;;2.70;;
71767;SDS011;59604;52.138;5.446;2022-07-04T07:52:59;7.10;;;2.72;;
71767;SDS011;59604;52.138;5.446;2022-07-04T07:55:26;9.00;;;2.78;;
71767;SDS011;59604;52.138;5.446;2022-07-04T07:57:52;8.10;;;3.13;;
71767;SDS011;59604;52.138;5.446;2022-07-04T08:00:19;8.75;;;2.95;;
71767;SDS011;59604;52.138;5.446;2022-07-04T08:03:06;5.93;;;2.78;;
71767;SDS011;59604;52.138;5.446;2022-07-04T08:05:51;6.15;;;2.47;;
71767;SDS011;59604;52.138;5.446;2022-07-04T08:08:17;8.63;;;2.30;;
71767;SDS011;59604;52.138;5.446;2022-07-04T08:10:44;8.05;;;2.58;;
71767;SDS011;59604;52.138;5.446;2022-07-04T08:13:10;8.93;;;2.70;;
71767;SDS011;59604;52.138;5.446;2022-07-04T08:15:38;7.57;;;2.50;;
71767;SDS011;59604;52.138;5.446;2022-07-04T08:18:04;5.93;;;2.63;;
71767;SDS011;59604;52.138;5.446;2022-07-04T08:20:31;9.23;;;2.53;;
71767;SDS011;59604;52.138;5.446;2022-07-04T08:23:18;8.50;;;2.20;;
71767;SDS011;59604;52.138;5.446;2022-07-04T08:25:44;5.18;;;1.90;;
71767;SDS011;59604;52.138;5.446;2022-07-04T08:28:12;7.38;;;2.20;;
71767;SDS011;59604;52.138;5.446;2022-07-04T08:30:38;4.43;;;2.00;;
71767;SDS011;59604;52.138;5.446;2022-07-04T08:33:05;7.10;;;1.70;;
71767;SDS011;59604;52.138;5.446;2022-07-04T08:35:31;6.13;;;1.88;;
71767;SDS011;59604;52.138;5.446;2022-07-04T08:37:59;7.35;;;1.80;;
71767;SDS011;59604;52.138;5.446;2022-07-04T08:40:27;7.15;;;1.90;;
71767;SDS011;59604;52.138;5.446;2022-07-04T08:42:55;5.07;;;1.60;;
71767;SDS011;59604;52.138;5.446;2022-07-04T08:45:31;4.90;;;1.77;;
71767;SDS011;59604;52.138;5.446;2022-07-04T08:48:00;6.13;;;1.98;;
71767;SDS011;59604;52.138;5.446;2022-07-04T08:53:00;6.75;;;2.03;;
71767;SDS011;59604;52.138;5.446;2022-07-04T08:55:40;5.95;;;2.38;;
71767;SDS011;59604;52.138;5.446;2022-07-04T08:58:27;5.97;;;2.10;;
71767;SDS011;59604;52.138;5.446;2022-07-04T09:03:26;7.63;;;1.80;;
71767;SDS011;59604;52.138;5.446;2022-07-04T09:08:21;4.03;;;1.50;;
71767;SDS011;59604;52.138;5.446;2022-07-04T09:10:48;5.25;;;1.52;;
71767;SDS011;59604;52.138;5.446;2022-07-04T09:13:15;4.75;;;1.52;;
71767;SDS011;59604;52.138;5.446;2022-07-04T09:15:44;6.15;;;1.60;;
71767;SDS011;59604;52.138;5.446;2022-07-04T09:18:19;3.83;;;1.70;;
71767;SDS011;59604;52.138;5.446;2022-07-04T09:23:21;5.35;;;1.60;;
71767;SDS011;59604;52.138;5.446;2022-07-04T09:25:50;4.85;;;1.50;;
71767;SDS011;59604;52.138;5.446;2022-07-04T09:28:34;4.47;;;1.50;;
71767;SDS011;59604;52.138;5.446;2022-07-04T09:31:02;4.45;;;1.60;;
71767;SDS011;59604;52.138;5.446;2022-07-04T09:33:54;4.72;;;1.50;;
71767;SDS011;59604;52.138;5.446;2022-07-04T09:36:24;5.57;;;1.50;;
71767;SDS011;59604;52.138;5.446;2022-07-04T09:42:00;4.65;;;1.38;;
71767;SDS011;59604;52.138;5.446;2022-07-04T09:47:25;4.05;;;1.30;;
71767;SDS011;59604;52.138;5.446;2022-07-04T09:50:13;3.42;;;1.23;;
71767;SDS011;59604;52.138;5.446;2022-07-04T09:52:45;2.90;;;1.30;;
71767;SDS011;59604;52.138;5.446;2022-07-04T09:55:12;3.90;;;1.13;;
71767;SDS011;59604;52.138;5.446;2022-07-04T09:57:43;3.58;;;1.30;;
71767;SDS011;59604;52.138;5.446;2022-07-04T10:00:21;5.63;;;1.40;;
71767;SDS011;59604;52.138;5.446;2022-07-04T10:03:15;4.05;;;1.20;;
71767;SDS011;59604;52.138;5.446;2022-07-04T10:05:45;5.82;;;1.50;;
71767;SDS011;59604;52.138;5.446;2022-07-04T10:08:19;4.22;;;1.45;;
71767;SDS011;59604;52.138;5.446;2022-07-04T10:10:46;3.50;;;1.42;;
71767;SDS011;59604;52.138;5.446;2022-07-04T10:13:13;3.63;;;1.30;;
71767;SDS011;59604;52.138;5.446;2022-07-04T10:15:40;3.90;;;1.42;;
71767;SDS011;59604;52.138;5.446;2022-07-04T10:18:08;4.70;;;1.42;;
71767;SDS011;59604;52.138;5.446;2022-07-04T10:20:35;3.67;;;1.40;;
71767;SDS011;59604;52.138;5.446;2022-07-04T10:23:02;4.00;;;1.30;;
71767;SDS011;59604;52.138;5.446;2022-07-04T10:25:29;3.45;;;1.23;;
71767;SDS011;59604;52.138;5.446;2022-07-04T10:27:56;3.95;;;1.45;;
71767;SDS011;59604;52.138;5.446;2022-07-04T10:30:29;5.00;;;1.40;;
71767;SDS011;59604;52.138;5.446;2022-07-04T10:33:06;4.80;;;1.40;;
71767;SDS011;59604;52.138;5.446;2022-07-04T10:38:25;5.60;;;1.35;;
71767;SDS011;59604;52.138;5.446;2022-07-04T10:45:52;3.78;;;1.55;;
71767;SDS011;59604;52.138;5.446;2022-07-04T10:48:22;3.97;;;1.42;;
71767;SDS011;59604;52.138;5.446;2022-07-04T10:50:59;4.32;;;1.58;;
71767;SDS011;59604;52.138;5.446;2022-07-04T10:53:30;5.13;;;1.55;;
71767;SDS011;59604;52.138;5.446;2022-07-04T10:58:44;5.72;;;1.77;;
71767;SDS011;59604;52.138;5.446;2022-07-04T11:01:14;3.95;;;1.60;;
71767;SDS011;59604;52.138;5.446;2022-07-04T11:03:44;4.68;;;1.65;;
71767;SDS011;59604;52.138;5.446;2022-07-04T11:17:15;3.40;;;1.30;;
71767;SDS011;59604;52.138;5.446;2022-07-04T11:19:46;4.30;;;1.38;;
71767;SDS011;59604;52.138;5.446;2022-07-04T11:22:21;4.68;;;1.30;;
71767;SDS011;59604;52.138;5.446;2022-07-04T11:24:49;4.00;;;1.20;;
71767;SDS011;59604;52.138;5.446;2022-07-04T11:27:15;3.80;;;1.40;;
71767;SDS011;59604;52.138;5.446;2022-07-04T11:29:54;3.95;;;1.40;;
71767;SDS011;59604;52.138;5.446;2022-07-04T11:32:29;3.75;;;1.35;;
71767;SDS011;59604;52.138;5.446;2022-07-04T11:34:56;3.60;;;1.38;;
71767;SDS011;59604;52.138;5.446;2022-07-04T11:37:22;4.45;;;1.40;;
71767;SDS011;59604;52.138;5.446;2022-07-04T11:39:52;3.42;;;1.20;;
71767;SDS011;59604;52.138;5.446;2022-07-04T11:45:04;2.88;;;1.00;;
71767;SDS011;59604;52.138;5.446;2022-07-04T11:47:33;3.10;;;1.20;;
71767;SDS011;59604;52.138;5.446;2022-07-04T11:50:02;3.65;;;1.33;;
71767;SDS011;59604;52.138;5.446;2022-07-04T11:52:41;3.53;;;1.15;;
71767;SDS011;59604;52.138;5.446;2022-07-04T11:55:27;4.10;;;1.20;;
71767;SDS011;59604;52.138;5.446;2022-07-04T11:57:54;4.80;;;1.27;;
71767;SDS011;59604;52.138;5.446;2022-07-04T12:00:25;3.97;;;1.30;;
71767;SDS011;59604;52.138;5.446;2022-07-04T12:02:57;4.00;;;1.38;;
71767;SDS011;59604;52.138;5.446;2022-07-04T12:05:25;4.47;;;1.35;;
71767;SDS011;59604;52.138;5.446;2022-07-04T12:07:51;3.88;;;1.35;;
71767;SDS011;59604;52.138;5.446;2022-07-04T12:10:38;3.88;;;1.40;;
71767;SDS011;59604;52.138;5.446;2022-07-04T12:13:07;2.92;;;1.08;;
71767;SDS011;59604;52.138;5.446;2022-07-04T12:20:52;3.95;;;1.40;;
71767;SDS011;59604;52.138;5.446;2022-07-04T12:23:20;3.97;;;1.25;;
71767;SDS011;59604;52.138;5.446;2022-07-04T12:25:51;4.30;;;1.30;;
71767;SDS011;59604;52.138;5.446;2022-07-04T12:28:18;3.67;;;1.35;;
71767;SDS011;59604;52.138;5.446;2022-07-04T12:30:53;4.70;;;1.30;;
71767;SDS011;59604;52.138;5.446;2022-07-04T12:33:22;3.80;;;1.50;;
71767;SDS011;59604;52.138;5.446;2022-07-04T12:35:51;3.88;;;1.30;;
71767;SDS011;59604;52.138;5.446;2022-07-04T12:40:55;3.92;;;1.33;;
71767;SDS011;59604;52.138;5.446;2022-07-04T12:46:13;4.00;;;1.35;;
71767;SDS011;59604;52.138;5.446;2022-07-04T12:48:57;3.72;;;1.25;;
71767;SDS011;59604;52.138;5.446;2022-07-04T12:53:51;3.15;;;1.10;;
71767;SDS011;59604;52.138;5.446;2022-07-04T12:58:56;4.20;;;1.50;;
71767;SDS011;59604;52.138;5.446;2022-07-04T13:01:27;4.60;;;1.35;;
71767;SDS011;59604;52.138;5.446;2022-07-04T13:03:55;3.60;;;1.23;;
71767;SDS011;59604;52.138;5.446;2022-07-04T13:06:21;4.30;;;1.20;;
71767;SDS011;59604;52.138;5.446;2022-07-04T13:08:48;3.30;;;1.20;;
71767;SDS011;59604;52.138;5.446;2022-07-04T13:14:01;7.10;;;1.08;;
71767;SDS011;59604;52.138;5.446;2022-07-04T13:16:27;3.30;;;1.13;;
71767;SDS011;59604;52.138;5.446;2022-07-04T13:18:54;4.00;;;1.33;;
71767;SDS011;59604;52.138;5.446;2022-07-04T13:21:21;6.25;;;1.08;;
71767;SDS011;59604;52.138;5.446;2022-07-04T13:23:48;3.30;;;1.20;;
71767;SDS011;59604;52.138;5.446;2022-07-04T13:26:15;3.83;;;1.33;;
71767;SDS011;59604;52.138;5.446;2022-07-04T13:28:42;3.45;;;1.17;;
71767;SDS011;59604;52.138;5.446;2022-07-04T13:31:08;4.85;;;1.40;;
71767;SDS011;59604;52.138;5.446;2022-07-04T13:33:35;3.40;;;1.30;;
71767;SDS011;59604;52.138;5.446;2022-07-04T13:36:01;3.63;;;1.20;;
71767;SDS011;59604;52.138;5.446;2022-07-04T13:38:28;5.18;;;1.30;;
71767;SDS011;59604;52.138;5.446;2022-07-04T13:40:55;3.55;;;1.20;;
71767;SDS011;59604;52.138;5.446;2022-07-04T13:43:26;4.55;;;1.25;;
71767;SDS011;59604;52.138;5.446;2022-07-04T13:45:54;4.07;;;1.00;;
71767;SDS011;59604;52.138;5.446;2022-07-04T13:48:23;4.07;;;1.38;;
71767;SDS011;59604;52.138;5.446;2022-07-04T13:50:50;4.55;;;1.30;;
71767;SDS011;59604;52.138;5.446;2022-07-04T13:53:17;4.65;;;1.30;;
71767;SDS011;59604;52.138;5.446;2022-07-04T13:55:44;3.25;;;1.08;;
71767;SDS011;59604;52.138;5.446;2022-07-04T13:58:13;3.33;;;1.20;;
71767;SDS011;59604;52.138;5.446;2022-07-04T14:00:40;3.95;;;1.40;;
71767;SDS011;59604;52.138;5.446;2022-07-04T14:03:11;3.70;;;1.13;;
71767;SDS011;59604;52.138;5.446;2022-07-04T14:05:40;3.65;;;1.20;;
71767;SDS011;59604;52.138;5.446;2022-07-04T14:08:07;4.43;;;1.27;;
71767;SDS011;59604;52.138;5.446;2022-07-04T14:10:34;4.57;;;1.25;;
71767;SDS011;59604;52.138;5.446;2022-07-04T14:13:01;3.80;;;1.10;;
71767;SDS011;59604;52.138;5.446;2022-07-04T14:15:27;3.58;;;1.25;;
71767;SDS011;59604;52.138;5.446;2022-07-04T14:17:54;3.70;;;1.13;;
71767;SDS011;59604;52.138;5.446;2022-07-04T14:20:20;3.53;;;1.20;;
71767;SDS011;59604;52.138;5.446;2022-07-04T14:22:47;4.43;;;1.27;;
71767;SDS011;59604;52.138;5.446;2022-07-04T14:25:13;3.90;;;1.20;;
71767;SDS011;59604;52.138;5.446;2022-07-04T14:27:40;4.82;;;1.30;;
71767;SDS011;59604;52.138;5.446;2022-07-04T14:30:06;3.45;;;1.13;;
71767;SDS011;59604;52.138;5.446;2022-07-04T14:32:34;5.03;;;1.40;;
71767;SDS011;59604;52.138;5.446;2022-07-04T14:35:00;3.40;;;1.02;;
71767;SDS011;59604;52.138;5.446;2022-07-04T14:37:30;3.38;;;1.27;;
71767;SDS011;59604;52.138;5.446;2022-07-04T14:39:57;5.32;;;1.25;;
71767;SDS011;59604;52.138;5.446;2022-07-04T14:42:23;5.10;;;1.20;;
71767;SDS011;59604;52.138;5.446;2022-07-04T14:44:50;3.78;;;1.30;;
71767;SDS011;59604;52.138;5.446;2022-07-04T14:47:16;3.65;;;1.23;;
71767;SDS011;59604;52.138;5.446;2022-07-04T14:49:43;5.03;;;1.40;;
71767;SDS011;59604;52.138;5.446;2022-07-04T14:54:37;5.43;;;1.63;;
71767;SDS011;59604;52.138;5.446;2022-07-04T14:57:03;4.80;;;1.60;;
71767;SDS011;59604;52.138;5.446;2022-07-04T14:59:30;3.30;;;1.20;;
71767;SDS011;59604;52.138;5.446;2022-07-04T15:01:57;4.88;;;1.20;;
71767;SDS011;59604;52.138;5.446;2022-07-04T15:04:24;4.43;;;1.23;;
71767;SDS011;59604;52.138;5.446;2022-07-04T15:06:50;4.15;;;1.13;;
71767;SDS011;59604;52.138;5.446;2022-07-04T15:09:17;5.03;;;1.33;;
71767;SDS011;59604;52.138;5.446;2022-07-04T15:11:43;6.13;;;1.33;;
71767;SDS011;59604;52.138;5.446;2022-07-04T15:14:13;3.47;;;1.20;;
71767;SDS011;59604;52.138;5.446;2022-07-04T15:16:40;5.22;;;1.20;;
71767;SDS011;59604;52.138;5.446;2022-07-04T15:19:07;3.60;;;1.15;;
71767;SDS011;59604;52.138;5.446;2022-07-04T15:21:34;3.60;;;1.15;;
71767;SDS011;59604;52.138;5.446;2022-07-04T15:24:19;3.35;;;1.20;;
71767;SDS011;59604;52.138;5.446;2022-07-04T15:26:49;4.60;;;1.23;;
71767;SDS011;59604;52.138;5.446;2022-07-04T15:29:17;3.97;;;1.35;;
71767;SDS011;59604;52.138;5.446;2022-07-04T15:31:46;4.32;;;1.25;;
71767;SDS011;59604;52.138;5.446;2022-07-04T15:34:14;3.60;;;1.35;;
71767;SDS011;59604;52.138;5.446;2022-07-04T15:36:42;3.78;;;1.20;;
71767;SDS011;59604;52.138;5.446;2022-07-04T15:39:09;3.72;;;1.40;;
71767;SDS011;59604;52.138;5.446;2022-07-04T15:41:38;4.95;;;1.50;;
71767;SDS011;59604;52.138;5.446;2022-07-04T15:44:05;5.53;;;1.60;;
71767;SDS011;59604;52.138;5.446;2022-07-04T15:46:32;4.78;;;1.38;;
71767;SDS011;59604;52.138;5.446;2022-07-04T15:49:01;3.50;;;1.23;;
71767;SDS011;59604;52.138;5.446;2022-07-04T15:51:29;5.07;;;1.35;;
71767;SDS011;59604;52.138;5.446;2022-07-04T15:54:10;4.00;;;1.17;;
71767;SDS011;59604;52.138;5.446;2022-07-04T15:56:37;4.35;;;1.23;;